createdAt,value
2019-06-10T00:01:11.936Z,85.70
2019-06-10T00:03:42.343Z,85.50
2019-06-10T00:06:12.099Z,85.90
2019-06-10T00:08:41.655Z,85.60
2019-06-10T00:11:11.685Z,85.80
2019-06-10T00:13:41.568Z,85.80
2019-06-10T00:16:11.561Z,86.30
2019-06-10T00:18:43.021Z,85.90
2019-06-10T00:21:12.316Z,85.70
2019-06-10T00:23:41.874Z,86.30
2019-06-10T00:26:12.651Z,85.70
2019-06-10T00:28:42.567Z,85.60
2019-06-10T00:31:12.174Z,85.70
2019-06-10T00:33:41.708Z,85.80
2019-06-10T00:36:13.519Z,85.90
2019-06-10T00:38:42.466Z,85.80
2019-06-10T00:41:14.081Z,85.90
2019-06-10T00:43:43.227Z,87.00
2019-06-10T00:46:13.355Z,86.10
2019-06-10T00:48:42.944Z,85.90
2019-06-10T00:51:13.221Z,86.00
2019-06-10T00:53:42.919Z,86.30
2019-06-10T00:56:14.320Z,86.40
2019-06-10T00:58:44.012Z,86.70
2019-06-10T01:01:14.686Z,87.10
2019-06-10T01:03:44.382Z,87.30
2019-06-10T01:06:15.086Z,87.50
2019-06-10T01:08:44.799Z,87.80
2019-06-10T01:11:21.534Z,88.10
2019-06-10T01:13:45.543Z,87.80
2019-06-10T01:16:15.601Z,88.20
2019-06-10T01:18:45.356Z,87.60
2019-06-10T01:21:15.505Z,87.00
2019-06-10T01:23:45.492Z,87.40
2019-06-10T01:26:16.414Z,87.60
2019-06-10T01:28:46.550Z,87.80
2019-06-10T01:31:20.714Z,87.20
2019-06-10T01:33:47.291Z,87.40
2019-06-10T01:36:18.113Z,88.30
2019-06-10T01:38:48.285Z,87.60
2019-06-10T01:41:17.769Z,87.90
2019-06-10T01:43:47.364Z,88.40
2019-06-10T01:46:17.547Z,88.60
2019-06-10T01:48:48.500Z,88.60
2019-06-10T01:51:21.567Z,88.30
2019-06-10T01:53:51.559Z,88.20
2019-06-10T01:56:21.528Z,88.60
2019-06-10T01:58:51.657Z,88.90
2019-06-10T02:01:27.552Z,89.10
2019-06-10T02:22:03.420Z,90.70
2019-06-10T02:24:32.992Z,90.50
2019-06-10T02:27:02.521Z,90.20
2019-06-10T02:29:32.676Z,90.30
2019-06-10T02:32:04.789Z,90.40
2019-06-10T02:34:39.222Z,90.40
2019-06-10T02:37:05.150Z,90.50
2019-06-10T02:39:38.820Z,90.70
2019-06-10T02:42:13.689Z,90.80
2019-06-10T02:44:44.533Z,91.00
2019-06-10T02:47:18.240Z,91.20
2019-06-10T02:49:57.007Z,91.30
2019-06-10T02:52:22.877Z,91.60
2019-06-10T02:54:53.531Z,91.70
2019-06-10T02:57:29.569Z,91.90
2019-06-10T02:59:54.402Z,92.60
2019-06-10T03:02:30.061Z,92.90
2019-06-10T03:04:55.709Z,93.00
2019-06-10T03:07:28.741Z,93.40
2019-06-10T03:09:56.547Z,93.70
2019-06-10T03:12:26.185Z,93.70
2019-06-10T03:14:55.666Z,93.60
2019-06-10T03:17:26.539Z,93.80
2019-06-10T03:19:56.504Z,94.00
2019-06-10T03:22:26.181Z,94.20
2019-06-10T03:24:55.759Z,94.50
2019-06-10T03:27:26.608Z,94.40
2019-06-10T03:29:57.255Z,94.60
2019-06-10T03:32:34.273Z,95.80
2019-06-10T03:34:58.048Z,96.80
2019-06-10T03:37:27.931Z,97.50
2019-06-10T03:39:57.384Z,98.40
2019-06-10T03:42:28.163Z,99.10
2019-06-10T03:44:57.727Z,99.40
2019-06-10T03:47:28.767Z,99.90
2019-06-10T03:49:58.495Z,99.90
2019-06-10T03:52:28.528Z,99.90
2019-06-10T03:54:58.080Z,99.90
2019-06-10T03:57:28.694Z,99.90
2019-06-10T03:59:58.656Z,99.90
2019-06-10T04:02:32.551Z,99.90
2019-06-10T04:05:02.985Z,99.90
2019-06-10T04:07:34.234Z,99.90
2019-06-10T04:10:04.019Z,99.90
2019-06-10T04:12:33.578Z,99.90
2019-06-10T04:15:04.453Z,99.90
2019-06-10T04:17:34.046Z,99.90
2019-06-10T04:20:11.626Z,99.90
2019-06-10T04:22:36.987Z,99.90
2019-06-10T04:25:06.651Z,99.90
2019-06-10T04:27:36.279Z,99.90
2019-06-10T04:30:06.537Z,99.90
2019-06-10T04:32:36.258Z,99.90
2019-06-10T04:35:07.503Z,99.90
2019-06-10T04:37:42.621Z,99.90
2019-06-10T04:40:13.394Z,99.90
2019-06-10T04:42:44.306Z,99.90
2019-06-10T04:45:13.887Z,99.90
2019-06-10T04:47:43.514Z,99.90
2019-06-10T04:50:25.019Z,99.90
2019-06-10T04:52:44.615Z,99.90
2019-06-10T04:55:14.301Z,99.90
2019-06-10T04:57:44.106Z,99.90
2019-06-10T05:00:14.837Z,99.90
2019-06-10T05:02:44.401Z,99.90
2019-06-10T05:05:14.127Z,99.90
2019-06-10T05:07:43.611Z,99.90
2019-06-10T05:10:13.271Z,99.90
2019-06-10T05:12:43.272Z,99.90
2019-06-10T05:15:13.478Z,99.90
2019-06-10T05:17:43.738Z,99.90
2019-06-10T05:20:13.759Z,99.90
2019-06-10T05:22:43.626Z,99.90
2019-06-10T05:25:13.260Z,99.90
2019-06-10T05:27:43.348Z,99.70
2019-06-10T05:30:12.994Z,99.90
2019-06-10T05:32:43.229Z,99.90
2019-06-10T05:35:12.963Z,99.90
2019-06-10T05:37:42.623Z,99.90
2019-06-10T05:40:12.830Z,99.90
2019-06-10T05:42:42.708Z,99.60
2019-06-10T05:45:12.436Z,99.20
2019-06-10T05:47:42.702Z,99.30
2019-06-10T05:50:13.007Z,99.40
2019-06-10T05:52:42.838Z,99.90
2019-06-10T05:55:12.330Z,99.90
2019-06-10T05:57:42.870Z,99.90
2019-06-10T06:00:14.932Z,99.90
2019-06-10T06:02:44.460Z,99.90
2019-06-10T06:05:14.377Z,99.90
2019-06-10T06:07:43.844Z,99.90
2019-06-10T06:10:13.636Z,99.90
2019-06-10T06:12:43.396Z,99.90
2019-06-10T06:15:13.698Z,99.90
2019-06-10T06:17:43.383Z,99.90
2019-06-10T06:20:13.990Z,99.90
2019-06-10T06:22:43.520Z,99.90
2019-06-10T06:25:15.280Z,99.90
2019-06-10T06:27:44.393Z,99.90
2019-06-10T06:30:18.473Z,99.90
2019-06-10T06:32:46.323Z,99.90
2019-06-10T06:35:15.945Z,99.90
2019-06-10T06:37:45.576Z,99.90
2019-06-10T06:40:15.845Z,99.90
2019-06-10T06:42:45.417Z,99.90
2019-06-10T06:45:15.204Z,99.90
2019-06-10T06:47:44.724Z,99.90
2019-06-10T06:50:14.347Z,99.90
2019-06-10T06:53:15.388Z,99.90
2019-06-10T06:55:15.215Z,99.90
2019-06-10T06:57:44.767Z,99.90
2019-06-10T07:00:40.819Z,99.90
2019-06-10T07:02:46.285Z,99.90
2019-06-10T07:05:15.803Z,99.90
2019-06-10T07:07:45.419Z,99.90
2019-06-10T07:10:14.986Z,99.90
2019-06-10T07:12:45.678Z,99.90
2019-06-10T07:15:16.276Z,99.90
2019-06-10T07:17:46.174Z,99.90
2019-06-10T07:20:15.960Z,99.90
2019-06-10T07:22:46.653Z,99.90
2019-06-10T07:25:16.419Z,99.90
2019-06-10T07:27:47.037Z,99.90
2019-06-10T07:30:17.762Z,99.90
2019-06-10T07:32:47.564Z,99.90
2019-06-10T07:35:17.356Z,99.90
2019-06-10T07:37:47.039Z,99.90
2019-06-10T07:40:18.771Z,99.60
2019-06-10T07:42:48.314Z,99.20
2019-06-10T07:45:18.159Z,99.10
2019-06-10T07:47:47.650Z,98.60
2019-06-10T07:50:17.759Z,98.60
2019-06-10T07:52:47.244Z,98.90
2019-06-10T07:55:18.220Z,98.80
2019-06-10T07:57:47.721Z,99.30
2019-06-10T08:00:19.340Z,98.90
2019-06-10T08:02:48.896Z,97.80
2019-06-10T08:05:18.388Z,98.50
2019-06-10T08:07:49.027Z,98.60
2019-06-10T08:10:18.695Z,98.00
2019-06-10T08:12:48.450Z,98.90
2019-06-10T08:15:17.938Z,97.20
2019-06-10T08:17:49.143Z,96.90
2019-06-10T08:20:39.149Z,96.10
2019-06-10T08:23:08.704Z,96.20
2019-06-10T08:25:38.523Z,95.20
2019-06-10T08:28:08.437Z,95.80
2019-06-10T08:30:38.250Z,94.80
2019-06-10T08:33:07.964Z,92.50
2019-06-10T08:35:44.517Z,90.40
2019-06-10T08:38:08.790Z,88.00
2019-06-10T08:40:38.413Z,83.20
2019-06-10T08:43:08.713Z,78.50
2019-06-10T08:45:38.893Z,73.40
2019-06-10T08:48:08.682Z,73.30
2019-06-10T08:50:39.334Z,71.50
2019-06-10T08:53:14.675Z,70.40
2019-06-10T08:55:42.838Z,71.60
2019-06-10T08:58:12.901Z,74.10
2019-06-10T09:00:45.104Z,75.70
2019-06-10T09:03:14.219Z,78.70
2019-06-10T09:05:46.513Z,77.50
2019-06-10T09:08:14.871Z,76.70
2019-06-10T09:10:47.948Z,75.60
2019-06-10T09:13:15.590Z,77.00
2019-06-10T09:16:00.571Z,75.40
2019-06-10T09:18:19.961Z,75.70
2019-06-10T09:20:52.437Z,76.20
2019-06-10T09:23:22.410Z,75.80
2019-06-10T09:25:54.492Z,78.00
2019-06-10T09:28:23.435Z,75.30
2019-06-10T09:30:58.321Z,75.30
2019-06-10T09:33:23.752Z,75.60
2019-06-10T09:35:55.042Z,74.30
2019-06-10T09:38:25.149Z,70.40
2019-06-10T09:41:01.360Z,65.60
2019-06-10T09:43:26.149Z,63.10
2019-06-10T09:45:56.644Z,58.90
2019-06-10T09:48:27.064Z,56.50
2019-06-10T09:50:58.586Z,55.90
2019-06-10T09:53:41.244Z,52.20
2019-06-10T09:55:59.035Z,50.80
2019-06-10T09:58:28.816Z,49.60
2019-06-10T10:00:59.007Z,49.20
2019-06-10T10:03:28.857Z,47.20
2019-06-10T10:06:09.916Z,47.00
2019-06-10T10:08:29.502Z,46.20
2019-06-10T10:10:59.365Z,45.30
2019-06-10T10:13:29.210Z,44.30
2019-06-10T10:15:58.784Z,47.00
2019-06-10T10:18:28.431Z,46.00
2019-06-10T10:21:00.265Z,43.70
2019-06-10T10:23:42.508Z,44.50
2019-06-10T10:26:03.182Z,43.70
2019-06-10T10:28:33.425Z,45.20
2019-06-10T10:31:04.400Z,44.20
2019-06-10T10:33:34.265Z,42.40
2019-06-10T10:36:03.775Z,38.70
2019-06-10T10:38:34.838Z,39.70
2019-06-10T10:41:04.971Z,43.20
2019-06-10T10:43:37.853Z,44.20
2019-06-10T10:46:06.115Z,44.30
2019-06-10T10:48:36.018Z,43.10
2019-06-10T10:51:05.569Z,45.10
2019-06-10T10:53:35.356Z,45.80
2019-06-10T10:56:05.077Z,44.80
2019-06-10T10:58:34.566Z,45.90
2019-06-10T11:01:04.886Z,48.20
2019-06-10T11:03:34.617Z,47.80
2019-06-10T11:06:05.051Z,47.40
2019-06-10T11:08:34.952Z,47.90
2019-06-10T11:11:05.899Z,46.90
2019-06-10T11:13:38.013Z,48.20
2019-06-10T11:16:07.539Z,49.30
2019-06-10T11:18:37.062Z,49.50
2019-06-10T11:21:06.697Z,50.10
2019-06-10T11:23:36.139Z,49.90
2019-06-10T11:26:05.710Z,51.20
2019-06-10T11:28:35.176Z,51.60
2019-06-10T11:31:04.660Z,53.30
2019-06-10T11:33:34.795Z,53.90
2019-06-10T11:36:04.432Z,55.70
2019-06-10T11:38:34.159Z,55.90
2019-06-10T11:41:03.748Z,55.90
2019-06-10T11:43:33.445Z,56.20
2019-06-10T11:46:07.108Z,58.80
2019-06-10T11:48:34.097Z,56.70
2019-06-10T11:51:04.740Z,58.50
2019-06-10T11:53:34.803Z,59.00
2019-06-10T11:56:04.763Z,60.20
2019-06-10T11:58:34.300Z,61.00
2019-06-10T12:01:04.298Z,62.50
2019-06-10T12:03:33.933Z,63.60
2019-06-10T12:06:05.306Z,63.30
2019-06-10T12:08:34.736Z,63.60
2019-06-10T12:11:05.310Z,66.30
2019-06-10T12:13:34.984Z,68.40
2019-06-10T12:17:05.225Z,71.20
2019-06-10T12:18:36.192Z,73.40
2019-06-10T12:21:05.743Z,74.10
2019-06-10T12:23:35.248Z,75.90
2019-06-10T12:26:05.394Z,76.70
2019-06-10T12:28:35.224Z,76.00
2019-06-10T12:31:07.280Z,76.70
2019-06-10T12:33:35.947Z,77.10
2019-06-10T12:36:07.278Z,77.40
2019-06-10T12:38:37.468Z,76.60
2019-06-10T12:41:10.154Z,77.50
2019-06-10T12:43:38.479Z,77.80
2019-06-10T12:46:07.971Z,77.60
2019-06-10T12:48:37.564Z,78.00
2019-06-10T12:51:09.598Z,78.20
2019-06-10T12:53:38.299Z,79.00
2019-06-10T12:56:11.348Z,78.90
2019-06-10T12:58:39.337Z,78.60
2019-06-10T13:01:08.913Z,78.60
2019-06-10T13:03:38.475Z,79.30
2019-06-10T13:06:09.798Z,79.10
2019-06-10T13:08:42.639Z,79.00
2019-06-10T13:11:13.225Z,79.30
2019-06-10T13:13:42.693Z,79.00
2019-06-10T13:16:14.165Z,78.60
2019-06-10T13:18:43.381Z,78.90
2019-06-10T13:21:17.171Z,78.30
2019-06-10T13:23:44.356Z,78.70
2019-06-10T13:26:16.735Z,78.40
2019-06-10T13:28:45.052Z,79.20
2019-06-10T13:31:14.615Z,79.80
2019-06-10T13:33:44.203Z,79.20
2019-06-10T13:36:13.763Z,79.20
2019-06-10T13:38:43.411Z,79.40
2019-06-10T13:41:12.988Z,78.70
2019-06-10T13:43:43.495Z,79.20
2019-06-10T13:46:13.203Z,78.80
2019-06-10T13:48:43.186Z,78.00
2019-06-10T13:51:15.471Z,78.50
2019-06-10T13:53:46.351Z,78.10
2019-06-10T13:56:38.162Z,78.70
2019-06-10T13:58:46.635Z,79.00
2019-06-10T14:01:21.396Z,78.40
2019-06-10T14:03:47.350Z,78.80
2019-06-10T14:06:37.117Z,77.60
2019-06-10T14:08:48.416Z,76.60
2019-06-10T14:11:19.172Z,76.50
2019-06-10T14:13:49.165Z,76.10
2019-06-10T14:16:19.102Z,77.70
2019-06-10T14:18:48.565Z,77.80
2019-06-10T14:21:18.798Z,76.10
2019-06-10T14:23:48.259Z,75.30
2019-06-10T14:26:25.606Z,74.10
2019-06-10T14:28:49.067Z,73.00
2019-06-10T14:31:38.282Z,72.00
2019-06-10T14:33:50.088Z,72.20
2019-06-10T14:36:22.041Z,72.00
2019-06-10T14:38:50.956Z,72.10
2019-06-10T14:41:25.650Z,71.80
2019-06-10T14:43:53.145Z,71.40
2019-06-10T14:46:23.165Z,72.00
2019-06-10T14:48:53.256Z,72.40
2019-06-10T14:51:23.077Z,72.40
2019-06-10T14:53:52.999Z,72.90
2019-06-10T14:56:23.517Z,71.80
2019-06-10T14:58:53.167Z,71.50
2019-06-10T15:01:25.434Z,71.40
2019-06-10T15:03:53.877Z,71.10
2019-06-10T15:06:23.398Z,71.10
2019-06-10T15:08:53.354Z,71.40
2019-06-10T15:11:25.390Z,71.90
2019-06-10T15:13:54.183Z,71.70
2019-06-10T15:16:23.966Z,72.60
2019-06-10T15:18:53.491Z,71.60
2019-06-10T15:21:23.453Z,71.50
2019-06-10T15:23:53.207Z,72.10
2019-06-10T15:26:22.731Z,72.00
2019-06-10T15:28:52.634Z,72.10
2019-06-10T15:31:23.302Z,72.30
2019-06-10T15:33:52.808Z,72.70
2019-06-10T15:36:22.343Z,72.90
2019-06-10T15:38:52.510Z,73.50
2019-06-10T15:41:24.715Z,74.00
2019-06-10T15:43:53.977Z,74.60
2019-06-10T15:46:23.413Z,75.20
2019-06-10T15:48:54.096Z,78.80
2019-06-10T15:51:26.060Z,89.10
2019-06-10T15:53:56.839Z,93.40
2019-06-10T15:56:37.595Z,94.30
2019-06-10T15:58:57.616Z,97.00
2019-06-10T16:01:28.284Z,97.10
2019-06-10T16:03:57.812Z,98.70
2019-06-10T16:06:28.391Z,99.90
2019-06-10T16:08:59.030Z,99.90
2019-06-10T16:11:30.063Z,99.90
2019-06-10T16:13:59.657Z,99.90
2019-06-10T16:16:29.182Z,99.90
2019-06-10T16:18:58.707Z,99.90
2019-06-10T16:21:28.704Z,99.90
2019-06-10T16:23:58.264Z,99.90
2019-06-10T16:26:28.085Z,99.90
2019-06-10T16:28:58.003Z,99.90
2019-06-10T16:31:27.744Z,99.90
2019-06-10T16:33:57.405Z,99.90
2019-06-10T16:36:28.060Z,99.90
2019-06-10T16:38:57.823Z,99.90
2019-06-10T16:41:28.200Z,99.90
2019-06-10T16:43:57.940Z,99.90
2019-06-10T16:46:29.230Z,99.90
2019-06-10T16:49:03.100Z,99.90
2019-06-10T16:51:31.876Z,99.90
2019-06-10T16:54:02.401Z,99.90
2019-06-10T16:56:33.539Z,99.90
2019-06-10T16:59:03.197Z,99.90
2019-06-10T17:01:33.185Z,99.90
2019-06-10T17:04:02.934Z,99.90
2019-06-10T17:06:32.855Z,99.90
2019-06-10T17:09:02.872Z,99.90
2019-06-10T17:11:32.439Z,99.90
2019-06-10T17:14:03.079Z,99.90
2019-06-10T17:16:32.758Z,99.90
2019-06-10T17:19:02.553Z,99.90
2019-06-10T17:21:34.631Z,99.90
2019-06-10T17:24:04.061Z,99.90
2019-06-10T17:26:37.934Z,99.90
2019-06-10T17:29:04.795Z,99.90
2019-06-10T17:31:35.317Z,99.90
2019-06-10T17:34:04.866Z,99.90
2019-06-10T17:36:35.451Z,99.90
2019-06-10T17:39:08.078Z,99.90
2019-06-10T17:41:37.935Z,99.90
2019-06-10T17:44:07.485Z,99.90
2019-06-10T17:46:37.363Z,99.90
2019-06-10T17:49:06.981Z,99.90
2019-06-10T17:51:36.815Z,99.90
2019-06-10T17:54:06.350Z,99.90
2019-06-10T17:56:36.526Z,99.90
2019-06-10T17:59:06.774Z,99.90
2019-06-10T18:01:36.433Z,99.90
2019-06-10T18:04:05.963Z,99.90
2019-06-10T18:06:36.558Z,99.90
2019-06-10T18:09:07.555Z,99.90
2019-06-10T18:11:37.372Z,99.90
2019-06-10T18:14:07.050Z,99.90
2019-06-10T18:16:36.855Z,99.90
2019-06-10T18:19:06.531Z,99.90
2019-06-10T18:21:36.559Z,99.90
2019-06-10T18:24:08.446Z,99.90
2019-06-10T18:26:38.042Z,99.90
2019-06-10T18:29:09.213Z,99.90
2019-06-10T18:31:39.401Z,99.90
2019-06-10T18:34:09.271Z,99.90
2019-06-10T18:36:38.760Z,99.90
2019-06-10T18:39:08.811Z,99.90
2019-06-10T18:41:39.685Z,99.90
2019-06-10T18:44:19.756Z,99.90
2019-06-10T18:46:43.049Z,99.90
2019-06-10T18:49:13.348Z,99.90
2019-06-10T18:51:43.549Z,99.90
2019-06-10T18:54:13.323Z,99.90
2019-06-10T18:56:43.105Z,99.90
2019-06-10T18:59:19.774Z,99.90
2019-06-10T19:01:43.987Z,99.90
2019-06-10T19:04:13.494Z,99.90
2019-06-10T19:06:43.277Z,99.90
2019-06-10T19:09:13.064Z,99.90
2019-06-10T19:11:43.306Z,99.90
2019-06-10T19:14:13.070Z,99.90
2019-06-10T19:16:43.077Z,99.90
2019-06-10T19:19:12.806Z,99.90
2019-06-10T19:21:44.044Z,99.90
2019-06-10T19:24:14.188Z,99.90
2019-06-10T19:26:45.170Z,99.90
2019-06-10T19:29:29.657Z,99.90
2019-06-10T19:31:46.486Z,99.90
2019-06-10T19:34:16.285Z,99.90
2019-06-10T19:36:45.851Z,99.90
2019-06-10T19:39:15.529Z,99.90
2019-06-10T19:41:47.268Z,99.90
2019-06-10T19:44:16.559Z,99.90
2019-06-10T19:46:46.087Z,99.90
2019-06-10T19:49:15.590Z,99.90
2019-06-10T19:51:46.890Z,99.90
2019-06-10T19:54:16.279Z,99.90
2019-06-10T19:56:45.825Z,99.90
2019-06-10T19:59:15.341Z,99.90
2019-06-10T20:04:22.503Z,99.90
2019-06-10T20:06:53.722Z,99.90
2019-06-10T20:09:22.992Z,99.90
2019-06-10T20:11:52.836Z,99.90
2019-06-10T20:14:22.295Z,99.90
2019-06-10T20:16:52.715Z,99.90
2019-06-10T20:19:22.611Z,99.90
2019-06-10T20:21:53.445Z,99.90
2019-06-10T20:24:22.938Z,99.90
2019-06-10T20:26:52.998Z,99.90
2019-06-10T20:29:22.658Z,99.90
2019-06-10T20:31:52.469Z,99.90
2019-06-10T20:34:24.413Z,99.90
2019-06-10T20:36:53.599Z,99.90
2019-06-10T20:39:24.884Z,99.90
2019-06-10T20:41:55.803Z,99.90
2019-06-10T20:44:28.579Z,99.90
2019-06-10T20:46:58.170Z,99.90
2019-06-10T20:49:27.895Z,99.90
2019-06-10T20:52:09.882Z,99.90
2019-06-10T20:54:28.783Z,99.90
2019-06-10T20:56:58.292Z,99.90
2019-06-10T20:59:27.968Z,99.90
2019-06-10T21:01:57.457Z,99.90
2019-06-10T21:04:27.109Z,99.90
2019-06-10T21:06:57.280Z,99.90
2019-06-10T21:09:28.004Z,99.90
2019-06-10T21:11:57.506Z,99.90
2019-06-10T21:14:27.340Z,99.90
2019-06-10T21:16:56.903Z,99.90
2019-06-10T21:19:26.599Z,99.90
2019-06-10T21:21:56.089Z,99.90
2019-06-10T21:24:25.832Z,99.90
2019-06-10T21:26:55.357Z,99.90
2019-06-10T21:29:25.214Z,99.90
2019-06-10T21:31:55.286Z,99.90
2019-06-10T21:34:24.854Z,99.90
2019-06-10T21:36:54.535Z,99.90
2019-06-10T21:39:24.777Z,99.90
2019-06-10T21:41:54.719Z,99.90
2019-06-10T21:44:24.351Z,99.90
2019-06-10T21:46:53.877Z,99.90
2019-06-10T21:49:23.998Z,99.90
2019-06-10T21:51:56.869Z,99.90
2019-06-10T21:54:26.909Z,99.90
2019-06-10T21:56:55.998Z,99.90
2019-06-10T21:59:25.749Z,99.90
2019-06-10T22:01:55.819Z,99.90
2019-06-10T22:04:25.470Z,99.90
2019-06-10T22:06:56.208Z,99.90
2019-06-10T22:09:25.893Z,99.90
2019-06-10T22:11:55.910Z,99.90
2019-06-10T22:14:28.332Z,99.90
2019-06-10T22:16:57.817Z,99.90
2019-06-10T22:19:27.420Z,99.90
2019-06-10T22:21:57.020Z,99.90
2019-06-10T22:24:28.581Z,99.90
2019-06-10T22:26:58.390Z,99.90
2019-06-10T22:29:27.987Z,99.90
2019-06-10T22:31:57.486Z,99.90
2019-06-10T22:34:27.625Z,99.90
2019-06-10T22:36:57.700Z,99.90
2019-06-10T22:39:27.615Z,99.90
2019-06-10T22:41:57.383Z,99.90
2019-06-10T22:44:26.918Z,99.90
2019-06-10T22:46:57.231Z,99.90
2019-06-10T22:49:27.014Z,99.90
2019-06-10T22:51:58.423Z,99.90
2019-06-10T22:54:27.847Z,99.90
2019-06-10T22:56:58.442Z,99.90
2019-06-10T22:59:28.295Z,99.90
2019-06-10T23:01:58.743Z,99.90
2019-06-10T23:04:29.103Z,99.90
2019-06-10T23:06:59.887Z,99.90
2019-06-10T23:09:29.886Z,99.90
2019-06-10T23:11:59.391Z,99.90
2019-06-10T23:14:29.363Z,99.90
2019-06-10T23:17:00.138Z,99.90
2019-06-10T23:19:33.095Z,99.90
2019-06-10T23:22:03.008Z,99.90
2019-06-10T23:24:32.609Z,99.90
2019-06-10T23:27:03.215Z,99.90
2019-06-10T23:29:33.120Z,99.90
2019-06-10T23:32:07.246Z,99.90
2019-06-10T23:34:37.181Z,99.90
2019-06-10T23:37:06.668Z,99.90
2019-06-10T23:39:36.296Z,99.90
2019-06-10T23:42:06.120Z,99.90
2019-06-10T23:44:35.738Z,99.90
2019-06-10T23:47:05.247Z,99.90
2019-06-10T23:49:34.878Z,99.90
2019-06-10T23:52:05.478Z,99.90
2019-06-10T23:54:35.293Z,99.90
2019-06-10T23:57:05.953Z,99.90
2019-06-10T23:59:36.275Z,99.90
